sensor_id;sensor_type;location;lat;lon;timestamp;temperature;humidity
60313;DHT22;46158;52.850;6.970;2023-07-30T00:01:55;20.50;85.00
60313;DHT22;46158;52.850;6.970;2023-07-30T00:04:21;20.50;85.00
60313;DHT22;46158;52.850;6.970;2023-07-30T00:06:46;20.40;84.90
60313;DHT22;46158;52.850;6.970;2023-07-30T00:09:12;20.40;84.90
60313;DHT22;46158;52.850;6.970;2023-07-30T00:11:38;20.40;84.90
60313;DHT22;46158;52.850;6.970;2023-07-30T00:14:04;20.50;85.00
60313;DHT22;46158;52.850;6.970;2023-07-30T00:16:30;20.40;84.90
60313;DHT22;46158;52.850;6.970;2023-07-30T00:18:55;20.40;84.90
60313;DHT22;46158;52.850;6.970;2023-07-30T00:21:22;20.40;84.90
60313;DHT22;46158;52.850;6.970;2023-07-30T00:23:48;20.40;84.90
60313;DHT22;46158;52.850;6.970;2023-07-30T00:26:14;20.40;84.90
60313;DHT22;46158;52.850;6.970;2023-07-30T00:28:39;20.40;84.90
60313;DHT22;46158;52.850;6.970;2023-07-30T00:31:05;20.40;84.90
60313;DHT22;46158;52.850;6.970;2023-07-30T00:33:31;20.40;84.90
60313;DHT22;46158;52.850;6.970;2023-07-30T00:35:56;20.40;84.90
60313;DHT22;46158;52.850;6.970;2023-07-30T00:38:22;20.40;84.90
60313;DHT22;46158;52.850;6.970;2023-07-30T00:40:49;20.40;84.90
60313;DHT22;46158;52.850;6.970;2023-07-30T00:43:14;20.40;84.90
60313;DHT22;46158;52.850;6.970;2023-07-30T00:45:43;20.40;84.90
60313;DHT22;46158;52.850;6.970;2023-07-30T00:48:10;20.40;84.90
60313;DHT22;46158;52.850;6.970;2023-07-30T00:50:37;20.30;84.90
60313;DHT22;46158;52.850;6.970;2023-07-30T00:53:04;20.30;84.90
60313;DHT22;46158;52.850;6.970;2023-07-30T00:55:30;20.30;84.80
60313;DHT22;46158;52.850;6.970;2023-07-30T00:57:56;20.30;84.80
60313;DHT22;46158;52.850;6.970;2023-07-30T01:00:23;20.30;84.90
60313;DHT22;46158;52.850;6.970;2023-07-30T01:02:51;20.30;84.80
60313;DHT22;46158;52.850;6.970;2023-07-30T01:05:17;20.30;84.80
60313;DHT22;46158;52.850;6.970;2023-07-30T01:07:43;20.30;84.80
60313;DHT22;46158;52.850;6.970;2023-07-30T01:10:09;20.30;84.80
60313;DHT22;46158;52.850;6.970;2023-07-30T01:12:35;20.30;84.80
60313;DHT22;46158;52.850;6.970;2023-07-30T01:15:02;20.30;84.90
60313;DHT22;46158;52.850;6.970;2023-07-30T01:17:28;20.30;84.80
60313;DHT22;46158;52.850;6.970;2023-07-30T01:19:54;20.30;84.80
60313;DHT22;46158;52.850;6.970;2023-07-30T01:22:21;20.30;84.80
60313;DHT22;46158;52.850;6.970;2023-07-30T01:24:47;20.30;84.80
60313;DHT22;46158;52.850;6.970;2023-07-30T01:27:27;20.30;84.80
60313;DHT22;46158;52.850;6.970;2023-07-30T01:30:05;20.30;84.70
60313;DHT22;46158;52.850;6.970;2023-07-30T01:32:32;20.30;84.80
60313;DHT22;46158;52.850;6.970;2023-07-30T01:35:01;20.30;84.90
60313;DHT22;46158;52.850;6.970;2023-07-30T01:37:27;20.30;84.80
60313;DHT22;46158;52.850;6.970;2023-07-30T01:39:55;20.20;84.80
60313;DHT22;46158;52.850;6.970;2023-07-30T01:42:21;20.20;84.80
60313;DHT22;46158;52.850;6.970;2023-07-30T01:44:47;20.30;84.80
60313;DHT22;46158;52.850;6.970;2023-07-30T01:47:12;20.20;84.80
60313;DHT22;46158;52.850;6.970;2023-07-30T01:49:38;20.20;84.80
60313;DHT22;46158;52.850;6.970;2023-07-30T01:52:04;20.20;84.80
60313;DHT22;46158;52.850;6.970;2023-07-30T01:54:29;20.20;84.80
60313;DHT22;46158;52.850;6.970;2023-07-30T01:56:55;20.20;84.80
60313;DHT22;46158;52.850;6.970;2023-07-30T01:59:21;20.20;84.80
60313;DHT22;46158;52.850;6.970;2023-07-30T02:01:46;20.20;84.80
60313;DHT22;46158;52.850;6.970;2023-07-30T02:04:12;20.20;84.80
60313;DHT22;46158;52.850;6.970;2023-07-30T02:06:38;20.20;84.80
60313;DHT22;46158;52.850;6.970;2023-07-30T02:09:03;20.20;84.80
60313;DHT22;46158;52.850;6.970;2023-07-30T02:11:29;20.20;84.80
60313;DHT22;46158;52.850;6.970;2023-07-30T02:13:55;20.20;84.80
60313;DHT22;46158;52.850;6.970;2023-07-30T02:16:20;20.20;84.80
60313;DHT22;46158;52.850;6.970;2023-07-30T02:18:46;20.10;84.70
60313;DHT22;46158;52.850;6.970;2023-07-30T02:21:12;20.20;84.80
60313;DHT22;46158;52.850;6.970;2023-07-30T02:23:38;20.10;84.70
60313;DHT22;46158;52.850;6.970;2023-07-30T02:26:04;20.10;84.70
60313;DHT22;46158;52.850;6.970;2023-07-30T02:28:29;20.10;84.70
60313;DHT22;46158;52.850;6.970;2023-07-30T02:30:55;20.10;84.80
60313;DHT22;46158;52.850;6.970;2023-07-30T02:33:21;20.10;84.70
60313;DHT22;46158;52.850;6.970;2023-07-30T02:35:46;20.10;84.70
60313;DHT22;46158;52.850;6.970;2023-07-30T02:38:12;20.10;84.70
60313;DHT22;46158;52.850;6.970;2023-07-30T02:40:38;20.10;84.80
60313;DHT22;46158;52.850;6.970;2023-07-30T02:43:03;20.10;84.70
60313;DHT22;46158;52.850;6.970;2023-07-30T02:45:29;20.10;84.70
60313;DHT22;46158;52.850;6.970;2023-07-30T02:47:55;20.10;84.70
60313;DHT22;46158;52.850;6.970;2023-07-30T02:50:20;20.10;84.70
60313;DHT22;46158;52.850;6.970;2023-07-30T02:52:46;20.10;84.70
60313;DHT22;46158;52.850;6.970;2023-07-30T02:55:12;20.10;84.70
60313;DHT22;46158;52.850;6.970;2023-07-30T02:57:37;20.10;84.70
60313;DHT22;46158;52.850;6.970;2023-07-30T03:00:03;20.10;84.70
60313;DHT22;46158;52.850;6.970;2023-07-30T03:02:29;20.00;84.70
60313;DHT22;46158;52.850;6.970;2023-07-30T03:04:55;20.00;84.70
60313;DHT22;46158;52.850;6.970;2023-07-30T03:07:21;20.00;84.70
60313;DHT22;46158;52.850;6.970;2023-07-30T03:09:47;20.10;84.70
60313;DHT22;46158;52.850;6.970;2023-07-30T03:12:13;20.00;84.70
60313;DHT22;46158;52.850;6.970;2023-07-30T03:14:39;20.10;84.70
60313;DHT22;46158;52.850;6.970;2023-07-30T03:17:05;20.10;84.70
60313;DHT22;46158;52.850;6.970;2023-07-30T03:19:31;20.00;84.70
60313;DHT22;46158;52.850;6.970;2023-07-30T03:21:57;20.00;84.70
60313;DHT22;46158;52.850;6.970;2023-07-30T03:24:23;20.00;84.70
60313;DHT22;46158;52.850;6.970;2023-07-30T03:26:49;20.00;84.70
60313;DHT22;46158;52.850;6.970;2023-07-30T03:29:15;20.00;84.70
60313;DHT22;46158;52.850;6.970;2023-07-30T03:31:41;20.00;84.70
60313;DHT22;46158;52.850;6.970;2023-07-30T03:34:08;20.00;84.70
60313;DHT22;46158;52.850;6.970;2023-07-30T03:36:34;19.90;84.70
60313;DHT22;46158;52.850;6.970;2023-07-30T03:38:59;20.00;84.70
60313;DHT22;46158;52.850;6.970;2023-07-30T03:41:25;20.00;84.80
60313;DHT22;46158;52.850;6.970;2023-07-30T03:43:51;20.00;84.70
60313;DHT22;46158;52.850;6.970;2023-07-30T03:46:16;19.90;84.70
60313;DHT22;46158;52.850;6.970;2023-07-30T03:48:42;20.00;84.70
60313;DHT22;46158;52.850;6.970;2023-07-30T03:51:08;20.00;84.70
60313;DHT22;46158;52.850;6.970;2023-07-30T03:53:34;20.00;84.80
60313;DHT22;46158;52.850;6.970;2023-07-30T03:56:00;19.90;84.70
60313;DHT22;46158;52.850;6.970;2023-07-30T03:58:26;19.90;84.70
60313;DHT22;46158;52.850;6.970;2023-07-30T04:00:52;19.90;84.70
60313;DHT22;46158;52.850;6.970;2023-07-30T04:03:17;19.90;84.70
60313;DHT22;46158;52.850;6.970;2023-07-30T04:05:43;19.90;84.70
60313;DHT22;46158;52.850;6.970;2023-07-30T04:08:09;19.90;84.70
60313;DHT22;46158;52.850;6.970;2023-07-30T04:10:34;19.90;84.70
60313;DHT22;46158;52.850;6.970;2023-07-30T04:13:00;19.90;84.70
60313;DHT22;46158;52.850;6.970;2023-07-30T04:15:25;19.90;84.80
60313;DHT22;46158;52.850;6.970;2023-07-30T04:17:52;19.80;84.70
60313;DHT22;46158;52.850;6.970;2023-07-30T04:20:18;19.90;84.70
60313;DHT22;46158;52.850;6.970;2023-07-30T04:22:44;19.90;84.80
60313;DHT22;46158;52.850;6.970;2023-07-30T04:25:10;19.80;84.70
60313;DHT22;46158;52.850;6.970;2023-07-30T04:27:38;19.80;84.70
60313;DHT22;46158;52.850;6.970;2023-07-30T04:30:05;19.80;84.70
60313;DHT22;46158;52.850;6.970;2023-07-30T04:32:31;19.80;84.70
60313;DHT22;46158;52.850;6.970;2023-07-30T04:34:57;19.80;84.70
60313;DHT22;46158;52.850;6.970;2023-07-30T04:37:23;19.80;84.70
60313;DHT22;46158;52.850;6.970;2023-07-30T04:39:49;19.80;84.70
60313;DHT22;46158;52.850;6.970;2023-07-30T04:42:15;19.80;84.70
60313;DHT22;46158;52.850;6.970;2023-07-30T04:44:41;19.80;84.70
60313;DHT22;46158;52.850;6.970;2023-07-30T04:47:07;19.80;84.70
60313;DHT22;46158;52.850;6.970;2023-07-30T04:49:33;19.80;84.70
60313;DHT22;46158;52.850;6.970;2023-07-30T04:51:59;19.80;84.70
60313;DHT22;46158;52.850;6.970;2023-07-30T04:54:25;19.80;84.70
60313;DHT22;46158;52.850;6.970;2023-07-30T04:56:51;19.80;84.70
60313;DHT22;46158;52.850;6.970;2023-07-30T04:59:16;19.80;84.70
60313;DHT22;46158;52.850;6.970;2023-07-30T05:01:42;19.80;84.80
60313;DHT22;46158;52.850;6.970;2023-07-30T05:04:08;19.80;84.70
60313;DHT22;46158;52.850;6.970;2023-07-30T05:06:34;19.80;84.80
60313;DHT22;46158;52.850;6.970;2023-07-30T05:09:00;19.80;84.80
60313;DHT22;46158;52.850;6.970;2023-07-30T05:11:26;19.70;84.70
60313;DHT22;46158;52.850;6.970;2023-07-30T05:13:51;19.70;84.70
60313;DHT22;46158;52.850;6.970;2023-07-30T05:16:17;19.70;84.70
60313;DHT22;46158;52.850;6.970;2023-07-30T05:18:44;19.70;84.70
60313;DHT22;46158;52.850;6.970;2023-07-30T05:21:10;19.70;84.70
60313;DHT22;46158;52.850;6.970;2023-07-30T05:23:35;19.70;84.70
60313;DHT22;46158;52.850;6.970;2023-07-30T05:26:01;19.70;84.60
60313;DHT22;46158;52.850;6.970;2023-07-30T05:28:27;19.70;84.60
60313;DHT22;46158;52.850;6.970;2023-07-30T05:30:52;19.70;84.60
60313;DHT22;46158;52.850;6.970;2023-07-30T05:33:18;19.70;84.60
60313;DHT22;46158;52.850;6.970;2023-07-30T05:35:44;19.70;84.60
60313;DHT22;46158;52.850;6.970;2023-07-30T05:38:11;19.70;84.50
60313;DHT22;46158;52.850;6.970;2023-07-30T05:40:36;19.70;84.50
60313;DHT22;46158;52.850;6.970;2023-07-30T05:43:02;19.70;84.50
60313;DHT22;46158;52.850;6.970;2023-07-30T05:45:28;19.70;84.50
60313;DHT22;46158;52.850;6.970;2023-07-30T05:47:54;19.70;84.60
60313;DHT22;46158;52.850;6.970;2023-07-30T05:50:20;19.70;84.60
60313;DHT22;46158;52.850;6.970;2023-07-30T05:52:46;19.70;84.60
60313;DHT22;46158;52.850;6.970;2023-07-30T05:55:11;19.70;84.60
60313;DHT22;46158;52.850;6.970;2023-07-30T05:57:37;19.60;84.50
60313;DHT22;46158;52.850;6.970;2023-07-30T06:00:03;19.70;84.60
60313;DHT22;46158;52.850;6.970;2023-07-30T06:02:29;19.70;84.60
60313;DHT22;46158;52.850;6.970;2023-07-30T06:04:55;19.70;84.60
60313;DHT22;46158;52.850;6.970;2023-07-30T06:07:20;19.70;84.60
60313;DHT22;46158;52.850;6.970;2023-07-30T06:09:46;19.60;84.60
60313;DHT22;46158;52.850;6.970;2023-07-30T06:12:12;19.60;84.60
60313;DHT22;46158;52.850;6.970;2023-07-30T06:14:37;19.60;84.60
60313;DHT22;46158;52.850;6.970;2023-07-30T06:17:03;19.60;84.60
60313;DHT22;46158;52.850;6.970;2023-07-30T06:19:29;19.70;84.60
60313;DHT22;46158;52.850;6.970;2023-07-30T06:21:54;19.60;84.60
60313;DHT22;46158;52.850;6.970;2023-07-30T06:24:20;19.60;84.60
60313;DHT22;46158;52.850;6.970;2023-07-30T06:26:46;19.60;84.60
60313;DHT22;46158;52.850;6.970;2023-07-30T06:29:11;19.60;84.60
60313;DHT22;46158;52.850;6.970;2023-07-30T06:31:37;19.60;84.60
60313;DHT22;46158;52.850;6.970;2023-07-30T06:34:03;19.60;84.60
60313;DHT22;46158;52.850;6.970;2023-07-30T06:36:28;19.60;84.60
60313;DHT22;46158;52.850;6.970;2023-07-30T06:38:54;19.60;84.60
60313;DHT22;46158;52.850;6.970;2023-07-30T06:41:21;19.70;84.70
60313;DHT22;46158;52.850;6.970;2023-07-30T06:43:46;19.60;84.60
60313;DHT22;46158;52.850;6.970;2023-07-30T06:46:12;19.60;84.60
60313;DHT22;46158;52.850;6.970;2023-07-30T06:48:38;19.70;84.70
60313;DHT22;46158;52.850;6.970;2023-07-30T06:51:07;19.60;84.60
60313;DHT22;46158;52.850;6.970;2023-07-30T06:53:33;19.60;84.60
60313;DHT22;46158;52.850;6.970;2023-07-30T06:55:59;19.60;84.60
60313;DHT22;46158;52.850;6.970;2023-07-30T06:58:24;19.60;84.60
60313;DHT22;46158;52.850;6.970;2023-07-30T07:00:50;19.70;84.70
60313;DHT22;46158;52.850;6.970;2023-07-30T07:03:17;19.70;84.70
60313;DHT22;46158;52.850;6.970;2023-07-30T07:05:43;19.60;84.60
60313;DHT22;46158;52.850;6.970;2023-07-30T07:08:08;19.60;84.70
60313;DHT22;46158;52.850;6.970;2023-07-30T07:10:34;19.70;84.80
60313;DHT22;46158;52.850;6.970;2023-07-30T07:12:59;19.70;84.80
60313;DHT22;46158;52.850;6.970;2023-07-30T07:15:25;19.70;84.80
60313;DHT22;46158;52.850;6.970;2023-07-30T07:17:51;19.70;84.80
60313;DHT22;46158;52.850;6.970;2023-07-30T07:20:16;19.60;84.80
60313;DHT22;46158;52.850;6.970;2023-07-30T07:22:42;19.60;84.80
60313;DHT22;46158;52.850;6.970;2023-07-30T07:25:08;19.70;84.90
60313;DHT22;46158;52.850;6.970;2023-07-30T07:27:34;19.70;85.10
60313;DHT22;46158;52.850;6.970;2023-07-30T07:30:00;19.70;85.30
60313;DHT22;46158;52.850;6.970;2023-07-30T07:32:25;19.70;85.30
60313;DHT22;46158;52.850;6.970;2023-07-30T07:34:51;19.70;85.30
60313;DHT22;46158;52.850;6.970;2023-07-30T07:37:17;19.70;85.30
60313;DHT22;46158;52.850;6.970;2023-07-30T07:39:44;19.70;85.20
60313;DHT22;46158;52.850;6.970;2023-07-30T07:42:10;19.70;85.20
60313;DHT22;46158;52.850;6.970;2023-07-30T07:44:36;19.70;85.10
60313;DHT22;46158;52.850;6.970;2023-07-30T07:47:02;19.70;85.20
60313;DHT22;46158;52.850;6.970;2023-07-30T07:49:28;19.70;85.20
60313;DHT22;46158;52.850;6.970;2023-07-30T07:51:53;19.70;85.30
60313;DHT22;46158;52.850;6.970;2023-07-30T07:54:19;19.70;85.20
60313;DHT22;46158;52.850;6.970;2023-07-30T07:56:45;19.70;85.20
60313;DHT22;46158;52.850;6.970;2023-07-30T07:59:10;19.80;85.30
60313;DHT22;46158;52.850;6.970;2023-07-30T08:01:36;19.70;85.20
60313;DHT22;46158;52.850;6.970;2023-07-30T08:04:02;19.70;85.20
60313;DHT22;46158;52.850;6.970;2023-07-30T08:06:28;19.70;85.20
60313;DHT22;46158;52.850;6.970;2023-07-30T08:08:53;19.70;85.20
60313;DHT22;46158;52.850;6.970;2023-07-30T08:11:19;19.70;85.30
60313;DHT22;46158;52.850;6.970;2023-07-30T08:13:45;19.70;85.30
60313;DHT22;46158;52.850;6.970;2023-07-30T08:16:11;19.70;85.30
60313;DHT22;46158;52.850;6.970;2023-07-30T08:18:37;19.70;85.30
60313;DHT22;46158;52.850;6.970;2023-07-30T08:21:03;19.70;85.40
60313;DHT22;46158;52.850;6.970;2023-07-30T08:23:28;19.80;85.50
60313;DHT22;46158;52.850;6.970;2023-07-30T08:25:54;19.80;85.60
60313;DHT22;46158;52.850;6.970;2023-07-30T08:28:20;19.80;85.60
60313;DHT22;46158;52.850;6.970;2023-07-30T08:30:46;19.80;85.60
60313;DHT22;46158;52.850;6.970;2023-07-30T08:33:11;19.80;85.70
60313;DHT22;46158;52.850;6.970;2023-07-30T08:35:37;19.80;85.70
60313;DHT22;46158;52.850;6.970;2023-07-30T08:38:03;19.80;85.80
60313;DHT22;46158;52.850;6.970;2023-07-30T08:40:28;19.80;85.70
60313;DHT22;46158;52.850;6.970;2023-07-30T08:42:54;19.80;85.70
60313;DHT22;46158;52.850;6.970;2023-07-30T08:45:20;19.80;85.70
60313;DHT22;46158;52.850;6.970;2023-07-30T08:47:46;19.80;85.80
60313;DHT22;46158;52.850;6.970;2023-07-30T08:50:12;19.80;85.80
60313;DHT22;46158;52.850;6.970;2023-07-30T08:52:39;19.80;85.80
60313;DHT22;46158;52.850;6.970;2023-07-30T08:55:05;19.80;85.90
60313;DHT22;46158;52.850;6.970;2023-07-30T08:57:32;19.80;85.90
60313;DHT22;46158;52.850;6.970;2023-07-30T09:00:06;19.80;86.20
60313;DHT22;46158;52.850;6.970;2023-07-30T09:02:43;19.90;86.10
60313;DHT22;46158;52.850;6.970;2023-07-30T09:05:10;19.90;86.30
60313;DHT22;46158;52.850;6.970;2023-07-30T09:07:35;19.90;86.40
60313;DHT22;46158;52.850;6.970;2023-07-30T09:10:01;19.90;86.40
60313;DHT22;46158;52.850;6.970;2023-07-30T09:12:29;19.90;85.70
60313;DHT22;46158;52.850;6.970;2023-07-30T09:14:56;20.00;86.30
60313;DHT22;46158;52.850;6.970;2023-07-30T09:17:22;20.00;86.20
60313;DHT22;46158;52.850;6.970;2023-07-30T09:19:48;20.00;86.20
60313;DHT22;46158;52.850;6.970;2023-07-30T09:22:36;20.00;86.10
60313;DHT22;46158;52.850;6.970;2023-07-30T09:25:04;20.00;86.00
60313;DHT22;46158;52.850;6.970;2023-07-30T09:27:31;20.00;86.10
60313;DHT22;46158;52.850;6.970;2023-07-30T09:29:59;20.00;86.10
60313;DHT22;46158;52.850;6.970;2023-07-30T09:32:35;20.00;86.10
60313;DHT22;46158;52.850;6.970;2023-07-30T09:35:08;20.00;85.90
60313;DHT22;46158;52.850;6.970;2023-07-30T09:37:40;20.00;86.00
60313;DHT22;46158;52.850;6.970;2023-07-30T09:40:08;20.00;86.00
60313;DHT22;46158;52.850;6.970;2023-07-30T09:42:35;20.00;86.10
60313;DHT22;46158;52.850;6.970;2023-07-30T09:45:08;20.00;86.00
60313;DHT22;46158;52.850;6.970;2023-07-30T09:47:37;20.00;86.00
60313;DHT22;46158;52.850;6.970;2023-07-30T09:50:02;20.00;86.00
60313;DHT22;46158;52.850;6.970;2023-07-30T09:52:29;20.00;86.00
60313;DHT22;46158;52.850;6.970;2023-07-30T09:54:57;20.00;86.00
60313;DHT22;46158;52.850;6.970;2023-07-30T09:57:23;20.00;86.00
60313;DHT22;46158;52.850;6.970;2023-07-30T09:59:48;20.00;86.00
60313;DHT22;46158;52.850;6.970;2023-07-30T10:02:15;20.00;85.90
60313;DHT22;46158;52.850;6.970;2023-07-30T10:04:43;20.00;85.90
60313;DHT22;46158;52.850;6.970;2023-07-30T10:07:17;20.00;86.00
60313;DHT22;46158;52.850;6.970;2023-07-30T10:09:46;20.00;85.90
60313;DHT22;46158;52.850;6.970;2023-07-30T10:12:16;20.00;85.90
60313;DHT22;46158;52.850;6.970;2023-07-30T10:14:43;20.00;85.90
60313;DHT22;46158;52.850;6.970;2023-07-30T10:17:11;20.00;85.90
60313;DHT22;46158;52.850;6.970;2023-07-30T10:19:37;20.00;86.00
60313;DHT22;46158;52.850;6.970;2023-07-30T10:25:03;20.10;85.90
60313;DHT22;46158;52.850;6.970;2023-07-30T10:27:38;20.10;85.90
60313;DHT22;46158;52.850;6.970;2023-07-30T10:30:14;20.10;85.90
60313;DHT22;46158;52.850;6.970;2023-07-30T10:32:42;20.10;85.90
60313;DHT22;46158;52.850;6.970;2023-07-30T10:38:27;20.10;85.80
60313;DHT22;46158;52.850;6.970;2023-07-30T10:43:42;20.00;85.70
60313;DHT22;46158;52.850;6.970;2023-07-30T10:46:10;20.10;85.80
60313;DHT22;46158;52.850;6.970;2023-07-30T10:48:44;20.00;85.80
60313;DHT22;46158;52.850;6.970;2023-07-30T10:51:12;20.00;85.80
60313;DHT22;46158;52.850;6.970;2023-07-30T10:53:38;20.00;85.80
60313;DHT22;46158;52.850;6.970;2023-07-30T10:56:10;20.00;85.80
60313;DHT22;46158;52.850;6.970;2023-07-30T10:58:36;20.00;85.70
60313;DHT22;46158;52.850;6.970;2023-07-30T11:01:03;20.00;85.80
60313;DHT22;46158;52.850;6.970;2023-07-30T11:03:29;20.10;86.50
60313;DHT22;46158;52.850;6.970;2023-07-30T11:05:56;20.10;85.80
60313;DHT22;46158;52.850;6.970;2023-07-30T11:08:38;20.00;85.70
60313;DHT22;46158;52.850;6.970;2023-07-30T11:11:06;20.10;85.70
60313;DHT22;46158;52.850;6.970;2023-07-30T11:13:43;20.00;85.80
60313;DHT22;46158;52.850;6.970;2023-07-30T11:16:12;20.00;85.70
60313;DHT22;46158;52.850;6.970;2023-07-30T11:18:38;20.00;85.70
60313;DHT22;46158;52.850;6.970;2023-07-30T11:21:05;20.10;85.80
60313;DHT22;46158;52.850;6.970;2023-07-30T11:23:32;20.00;85.70
60313;DHT22;46158;52.850;6.970;2023-07-30T11:25:58;20.00;85.70
60313;DHT22;46158;52.850;6.970;2023-07-30T11:28:30;20.00;86.40
60313;DHT22;46158;52.850;6.970;2023-07-30T11:31:00;20.00;85.70
60313;DHT22;46158;52.850;6.970;2023-07-30T11:33:27;20.00;85.70
60313;DHT22;46158;52.850;6.970;2023-07-30T11:35:55;20.00;85.70
60313;DHT22;46158;52.850;6.970;2023-07-30T11:38:26;20.00;85.70
60313;DHT22;46158;52.850;6.970;2023-07-30T11:40:53;20.00;85.70
60313;DHT22;46158;52.850;6.970;2023-07-30T11:43:23;20.00;85.70
60313;DHT22;46158;52.850;6.970;2023-07-30T11:46:05;20.00;85.70
60313;DHT22;46158;52.850;6.970;2023-07-30T11:48:32;20.00;85.70
60313;DHT22;46158;52.850;6.970;2023-07-30T11:50:57;20.00;85.80
60313;DHT22;46158;52.850;6.970;2023-07-30T11:53:52;20.00;85.70
60313;DHT22;46158;52.850;6.970;2023-07-30T11:56:19;20.00;85.60
60313;DHT22;46158;52.850;6.970;2023-07-30T11:58:46;20.00;85.70
60313;DHT22;46158;52.850;6.970;2023-07-30T12:01:12;20.00;85.70
60313;DHT22;46158;52.850;6.970;2023-07-30T12:03:38;20.00;85.70
60313;DHT22;46158;52.850;6.970;2023-07-30T12:06:07;20.10;85.70
60313;DHT22;46158;52.850;6.970;2023-07-30T12:08:35;20.10;85.70
60313;DHT22;46158;52.850;6.970;2023-07-30T12:11:05;20.10;85.70
60313;DHT22;46158;52.850;6.970;2023-07-30T12:13:31;20.10;85.70
60313;DHT22;46158;52.850;6.970;2023-07-30T12:15:57;20.00;85.70
60313;DHT22;46158;52.850;6.970;2023-07-30T12:18:24;20.00;85.80
60313;DHT22;46158;52.850;6.970;2023-07-30T12:20:52;20.00;85.70
60313;DHT22;46158;52.850;6.970;2023-07-30T12:23:18;20.00;85.70
60313;DHT22;46158;52.850;6.970;2023-07-30T12:25:43;20.10;85.80
60313;DHT22;46158;52.850;6.970;2023-07-30T12:28:09;20.00;85.70
60313;DHT22;46158;52.850;6.970;2023-07-30T12:30:35;20.10;85.70
60313;DHT22;46158;52.850;6.970;2023-07-30T12:33:03;20.10;85.70
60313;DHT22;46158;52.850;6.970;2023-07-30T12:35:29;20.10;85.80
60313;DHT22;46158;52.850;6.970;2023-07-30T12:37:55;20.10;85.70
60313;DHT22;46158;52.850;6.970;2023-07-30T12:40:20;20.10;85.70
60313;DHT22;46158;52.850;6.970;2023-07-30T12:42:46;20.10;85.80
60313;DHT22;46158;52.850;6.970;2023-07-30T12:45:12;20.10;85.80
60313;DHT22;46158;52.850;6.970;2023-07-30T12:47:37;20.10;85.80
60313;DHT22;46158;52.850;6.970;2023-07-30T12:50:04;20.10;85.80
60313;DHT22;46158;52.850;6.970;2023-07-30T12:52:32;20.10;86.50
60313;DHT22;46158;52.850;6.970;2023-07-30T12:54:58;20.10;85.70
60313;DHT22;46158;52.850;6.970;2023-07-30T12:57:23;20.10;85.80
60313;DHT22;46158;52.850;6.970;2023-07-30T12:59:49;20.10;85.80
60313;DHT22;46158;52.850;6.970;2023-07-30T13:02:15;20.10;85.80
60313;DHT22;46158;52.850;6.970;2023-07-30T13:04:40;20.10;85.80
60313;DHT22;46158;52.850;6.970;2023-07-30T13:07:06;20.10;85.80
60313;DHT22;46158;52.850;6.970;2023-07-30T13:09:32;20.20;85.80
60313;DHT22;46158;52.850;6.970;2023-07-30T13:11:58;20.20;85.90
60313;DHT22;46158;52.850;6.970;2023-07-30T13:14:23;20.20;85.80
60313;DHT22;46158;52.850;6.970;2023-07-30T13:16:49;20.20;85.80
60313;DHT22;46158;52.850;6.970;2023-07-30T13:19:15;20.20;85.70
60313;DHT22;46158;52.850;6.970;2023-07-30T13:21:40;20.20;85.70
60313;DHT22;46158;52.850;6.970;2023-07-30T13:24:06;20.20;85.70
60313;DHT22;46158;52.850;6.970;2023-07-30T13:26:32;20.20;85.70
60313;DHT22;46158;52.850;6.970;2023-07-30T13:28:57;20.20;85.70
60313;DHT22;46158;52.850;6.970;2023-07-30T13:31:23;20.20;85.70
60313;DHT22;46158;52.850;6.970;2023-07-30T13:33:48;20.20;85.70
60313;DHT22;46158;52.850;6.970;2023-07-30T13:36:14;20.20;85.70
60313;DHT22;46158;52.850;6.970;2023-07-30T13:38:40;20.20;85.70
60313;DHT22;46158;52.850;6.970;2023-07-30T13:41:06;20.20;85.70
60313;DHT22;46158;52.850;6.970;2023-07-30T13:43:32;20.20;85.60
60313;DHT22;46158;52.850;6.970;2023-07-30T13:45:58;20.20;85.60
60313;DHT22;46158;52.850;6.970;2023-07-30T13:48:25;20.20;85.70
60313;DHT22;46158;52.850;6.970;2023-07-30T13:50:50;20.20;85.60
60313;DHT22;46158;52.850;6.970;2023-07-30T13:53:16;20.20;85.70
60313;DHT22;46158;52.850;6.970;2023-07-30T13:55:42;20.20;85.60
60313;DHT22;46158;52.850;6.970;2023-07-30T13:58:08;20.20;85.60
60313;DHT22;46158;52.850;6.970;2023-07-30T14:00:34;20.20;85.60
60313;DHT22;46158;52.850;6.970;2023-07-30T14:02:59;20.30;85.70
60313;DHT22;46158;52.850;6.970;2023-07-30T14:05:25;20.20;85.50
60313;DHT22;46158;52.850;6.970;2023-07-30T14:07:54;20.20;85.50
60313;DHT22;46158;52.850;6.970;2023-07-30T14:10:22;20.30;85.60
60313;DHT22;46158;52.850;6.970;2023-07-30T14:12:48;20.30;85.60
60313;DHT22;46158;52.850;6.970;2023-07-30T14:15:14;20.30;85.60
60313;DHT22;46158;52.850;6.970;2023-07-30T14:17:40;20.30;85.60
60313;DHT22;46158;52.850;6.970;2023-07-30T14:20:06;20.30;85.60
60313;DHT22;46158;52.850;6.970;2023-07-30T14:22:33;20.30;85.60
60313;DHT22;46158;52.850;6.970;2023-07-30T14:24:59;20.30;85.60
60313;DHT22;46158;52.850;6.970;2023-07-30T14:27:25;20.30;85.50
60313;DHT22;46158;52.850;6.970;2023-07-30T14:29:51;20.30;85.50
60313;DHT22;46158;52.850;6.970;2023-07-30T14:32:20;20.20;85.50
60313;DHT22;46158;52.850;6.970;2023-07-30T14:34:46;20.30;85.50
60313;DHT22;46158;52.850;6.970;2023-07-30T14:37:12;20.30;85.50
60313;DHT22;46158;52.850;6.970;2023-07-30T14:39:38;20.30;85.50
60313;DHT22;46158;52.850;6.970;2023-07-30T14:42:05;20.30;85.50
60313;DHT22;46158;52.850;6.970;2023-07-30T14:44:31;20.30;85.50
60313;DHT22;46158;52.850;6.970;2023-07-30T14:46:57;20.30;85.50
60313;DHT22;46158;52.850;6.970;2023-07-30T14:49:24;20.30;86.20
60313;DHT22;46158;52.850;6.970;2023-07-30T14:51:49;20.30;85.40
60313;DHT22;46158;52.850;6.970;2023-07-30T14:54:17;20.30;85.40
60313;DHT22;46158;52.850;6.970;2023-07-30T14:56:43;20.30;85.50
60313;DHT22;46158;52.850;6.970;2023-07-30T14:59:09;20.30;85.40
60313;DHT22;46158;52.850;6.970;2023-07-30T15:01:35;20.30;85.40
60313;DHT22;46158;52.850;6.970;2023-07-30T15:04:01;20.30;85.40
60313;DHT22;46158;52.850;6.970;2023-07-30T15:06:26;20.30;85.40
60313;DHT22;46158;52.850;6.970;2023-07-30T15:08:55;20.30;85.40
60313;DHT22;46158;52.850;6.970;2023-07-30T15:11:21;20.30;85.40
60313;DHT22;46158;52.850;6.970;2023-07-30T15:13:46;20.30;85.40
60313;DHT22;46158;52.850;6.970;2023-07-30T15:16:12;20.30;85.40
60313;DHT22;46158;52.850;6.970;2023-07-30T15:18:38;20.30;85.40
60313;DHT22;46158;52.850;6.970;2023-07-30T15:21:03;20.30;85.50
60313;DHT22;46158;52.850;6.970;2023-07-30T15:23:30;20.40;85.60
60313;DHT22;46158;52.850;6.970;2023-07-30T15:25:56;20.30;85.60
60313;DHT22;46158;52.850;6.970;2023-07-30T15:28:23;20.30;85.60
60313;DHT22;46158;52.850;6.970;2023-07-30T15:30:48;20.40;85.70
60313;DHT22;46158;52.850;6.970;2023-07-30T15:33:14;20.40;85.70
60313;DHT22;46158;52.850;6.970;2023-07-30T15:35:40;20.40;85.70